M I D A S
Marine Information and Data Acquisition System
Tripno 2202 of the Zeeleeuw from 2011-10-20 06:37:34 to 2011-10-20 15:03:50
Back to CruiseResearch ActivitiesStationsMapUnderway DataData graphs

EquipmentUnitsComment
TimeDGPSUTC
LatitudeDGPSDM.mWGS84
LongitudeDGPSDM.mWGS84
HeadingGyrodeg 
SOGDGPSknotsSpeed over ground
COGDGPSdegCourse over ground
DepthEcho soundermeters200 kHz
Missing or incorrect values are displayed as -999
Navigation data collected by the RV Zeeleeuw from 2011-10-20 06:34:08 to 2011-10-20 15:12:48
                                                                                    Next 1000 lines
Time Latitude Longitude Heading SOG COG Depth
2011-10-20 06:34:18 51°13.637 2°56.013 107.6 1.2 289 9.3
2011-10-20 06:34:23 51°13.638 2°56.009 107.6 1.7 290 9.3
2011-10-20 06:34:28 51°13.639 2°56.005 107.7 2.1 292 9.4
2011-10-20 06:34:33 51°13.641 2°56 108.4 2.4 292 -999
2011-10-20 06:34:39 51°13.643 2°55.993 108.7 2.8 293 -999
2011-10-20 06:34:45 51°13.645 2°55.985 109 3.1 293 -999
2011-10-20 06:34:51 51°13.647 2°55.977 109.3 3.4 293 -999
2011-10-20 06:34:56 51°13.65 2°55.971 109.3 3.6 292 -999
2011-10-20 06:35:01 51°13.652 2°55.964 108.8 3.8 291 -999
2011-10-20 06:35:06 51°13.653 2°55.955 108.2 3.8 290 -999
2011-10-20 06:35:11 51°13.654 2°55.947 107.6 3.7 288 -999
2011-10-20 06:35:16 51°13.656 2°55.939 106.9 3.6 288 -999
2011-10-20 06:35:21 51°13.657 2°55.932 106.9 3.6 287 -999
2011-10-20 06:35:26 51°13.659 2°55.924 107.7 3.6 288 -999
2011-10-20 06:35:31 51°13.66 2°55.916 108.8 3.6 288 -999
2011-10-20 06:35:36 51°13.662 2°55.909 110.3 3.7 288 -999
2011-10-20 06:35:41 51°13.664 2°55.901 111.6 3.8 290 -999
2011-10-20 06:35:47 51°13.667 2°55.891 113.2 3.9 292 -999
2011-10-20 06:35:51 51°13.668 2°55.885 114.6 4.1 293 -999
2011-10-20 06:35:56 51°13.671 2°55.876 116.1 4.2 294 -999
2011-10-20 06:36:01 51°13.674 2°55.868 117.6 4.3 296 -999
2011-10-20 06:36:06 51°13.677 2°55.859 118.7 4.5 298 -999
2011-10-20 06:36:11 51°13.68 2°55.85 119.9 4.6 298 -999
2011-10-20 06:36:17 51°13.684 2°55.839 120.9 4.7 300 -999
2011-10-20 06:36:21 51°13.687 2°55.832 122 4.8 301 -999
2011-10-20 06:36:26 51°13.691 2°55.823 122.8 4.9 303 -999
2011-10-20 06:36:32 51°13.695 2°55.812 124.1 5 304 -999
2011-10-20 06:36:37 51°13.699 2°55.803 125.7 5.1 305 -999
2011-10-20 06:36:42 51°13.704 2°55.794 127.1 5.1 307 -999
2011-10-20 06:36:46 51°13.707 2°55.787 128.3 5.1 308 -999
2011-10-20 06:36:52 51°13.713 2°55.776 129.1 5.2 309 -999
2011-10-20 06:36:57 51°13.718 2°55.767 130 5.2 310 -999
2011-10-20 06:37:01 51°13.721 2°55.76 131.2 5.2 311 -999
2011-10-20 06:37:06 51°13.726 2°55.751 132.5 5.3 311 -999
2011-10-20 06:37:11 51°13.731 2°55.743 133.5 5.3 313 -999
2011-10-20 06:37:17 51°13.737 2°55.732 135.3 5.3 314 -999
2011-10-20 06:37:21 51°13.741 2°55.726 137 5.4 316 -999
2011-10-20 06:37:26 51°13.746 2°55.718 138.7 5.4 317 -999
2011-10-20 06:37:31 51°13.752 2°55.71 140.5 5.4 319 -999
2011-10-20 06:37:36 51°13.758 2°55.702 142.1 5.4 322 -999
2011-10-20 06:37:42 51°13.765 2°55.693 144.5 5.5 324 -999
2011-10-20 06:37:46 51°13.77 2°55.688 146.6 5.5 325 -999
2011-10-20 06:37:51 51°13.776 2°55.681 148.3 5.5 327 -999
2011-10-20 06:37:56 51°13.783 2°55.675 150 5.5 329 -999
2011-10-20 06:38:01 51°13.79 2°55.67 151.7 5.5 330 -999
2011-10-20 06:38:06 51°13.797 2°55.664 153.2 5.5 332 -999
2011-10-20 06:38:11 51°13.804 2°55.659 154.4 5.5 334 -999
2011-10-20 06:38:16 51°13.811 2°55.654 156.1 5.5 336 -999
2011-10-20 06:38:21 51°13.818 2°55.649 157.3 5.5 336 -999
2011-10-20 06:38:27 51°13.827 2°55.644 158.3 5.5 338 -999
2011-10-20 06:38:31 51°13.832 2°55.64 159.3 5.5 339 -999
2011-10-20 06:38:36 51°13.839 2°55.636 160.5 5.5 341 -999
2011-10-20 06:38:41 51°13.848 2°55.631 162.1 5.6 342 -999
2011-10-20 06:38:46 51°13.855 2°55.627 163.4 5.6 343 -999
2011-10-20 06:38:51 51°13.861 2°55.625 164.8 5.6 344 -999
2011-10-20 06:38:57 51°13.87 2°55.621 165.6 5.5 346 -999
2011-10-20 06:39:02 51°13.877 2°55.619 167.6 5.3 347 -999
2011-10-20 06:39:07 51°13.884 2°55.617 169.5 5.1 349 -999
2011-10-20 06:39:11 51°13.889 2°55.615 171.7 5 351 -999
2011-10-20 06:39:16 51°13.896 2°55.614 174.3 4.8 355 -999
2011-10-20 06:39:21 51°13.902 2°55.613 177.3 4.6 356 -999
2011-10-20 06:39:25 51°13.908 2°55.613 180 4.5 359 -999
2011-10-20 06:39:30 51°13.914 2°55.613 182.3 4.4 1 -999
2011-10-20 06:39:36 51°13.92 2°55.614 185.7 4.2 5 -999
2011-10-20 06:39:41 51°13.925 2°55.615 188.8 4 7 -999
2011-10-20 06:39:46 51°13.931 2°55.616 191.6 3.9 10 -999
2011-10-20 06:39:51 51°13.936 2°55.618 194.3 3.8 13 -999
2011-10-20 06:39:56 51°13.94 2°55.62 196.3 3.6 16 -999
2011-10-20 06:40:01 51°13.945 2°55.622 199.3 3.5 18 -999
2011-10-20 06:40:06 51°13.949 2°55.625 201.7 3.4 21 -999
2011-10-20 06:40:11 51°13.954 2°55.629 204 3.3 24 -999
2011-10-20 06:40:16 51°13.957 2°55.631 206.7 3.1 26 -999
2011-10-20 06:40:21 51°13.961 2°55.634 209 3 30 -999
2011-10-20 06:40:26 51°13.964 2°55.638 210.6 2.9 32 -999
2011-10-20 06:40:31 51°13.967 2°55.641 211.7 2.7 31 -999
2011-10-20 06:40:36 51°13.97 2°55.644 212.5 2.4 35 -999
2011-10-20 06:40:41 51°13.972 2°55.646 213.3 1.5 31 -999
2011-10-20 06:40:46 51°13.972 2°55.647 215.5 0.5 54 -999
2011-10-20 06:40:51 51°13.972 2°55.645 218 0.5 254 13.2
2011-10-20 06:40:56 51°13.971 2°55.643 222.1 1.4 231 13.1
2011-10-20 06:41:01 51°13.969 2°55.638 227.3 2.2 238 13.1
2011-10-20 06:41:06 51°13.967 2°55.632 235.3 3 248 13.1
2011-10-20 06:41:11 51°13.966 2°55.624 245.1 3.7 259 13.2
2011-10-20 06:41:16 51°13.966 2°55.615 254.9 4.1 271 13.4
2011-10-20 06:41:21 51°13.967 2°55.605 265.5 4.3 276 13.4
2011-10-20 06:41:26 51°13.969 2°55.596 275.4 4.6 287 13
2011-10-20 06:41:31 51°13.972 2°55.586 285.1 4.8 297 13
2011-10-20 06:41:36 51°13.976 2°55.577 294.6 4.9 306 13.2
2011-10-20 06:41:41 51°13.981 2°55.569 304.2 4.7 312 12.9
2011-10-20 06:41:45 51°13.985 2°55.564 313.5 4.6 321 12.8
2011-10-20 06:41:50 51°13.99 2°55.558 321.4 4.8 325 13.2
2011-10-20 06:41:55 51°13.996 2°55.553 326.7 5 329 13.4
2011-10-20 06:42:00 51°14.003 2°55.547 330 5.2 330 12.9
2011-10-20 06:42:06 51°14.011 2°55.54 331.6 5.4 332 13.3
2011-10-20 06:42:11 51°14.018 2°55.534 331.6 5.7 330 13.3
2011-10-20 06:42:16 51°14.025 2°55.526 331.1 6.3 330 13.1
2011-10-20 06:42:21 51°14.034 2°55.519 331.1 6.9 332 12.8
2011-10-20 06:42:26 51°14.044 2°55.511 331.8 7.5 332 13.1
2011-10-20 06:42:30 51°14.052 2°55.504 331.8 8 330 13.2
2011-10-20 06:42:35 51°14.062 2°55.495 330.8 8.4 332 13
2011-10-20 06:42:40 51°14.073 2°55.486 331.8 8.8 333 12.9
2011-10-20 06:42:46 51°14.087 2°55.474 332.7 9.2 332 13
2011-10-20 06:42:50 51°14.096 2°55.466 331.7 9.4 330 13
2011-10-20 06:42:55 51°14.108 2°55.456 331.1 9.7 331 13
2011-10-20 06:43:00 51°14.12 2°55.444 330.6 9.8 329 12.9
2011-10-20 06:43:05 51°14.131 2°55.433 329.9 10 329 12.9
2011-10-20 06:43:09 51°14.141 2°55.424 329.5 10.3 329 12.8
2011-10-20 06:43:15 51°14.156 2°55.409 329.2 10.5 329 12.9
2011-10-20 06:43:21 51°14.172 2°55.395 329.5 10.7 331 12.7
2011-10-20 06:43:25 51°14.182 2°55.385 330.3 10.8 329 12.8
2011-10-20 06:43:31 51°14.198 2°55.371 330.3 10.9 330 -999
2011-10-20 06:43:35 51°14.209 2°55.362 330 11 331 12.8
2011-10-20 06:43:41 51°14.225 2°55.348 331.3 11 332 -999
2011-10-20 06:43:45 51°14.235 2°55.338 331.8 11 332 -999
2011-10-20 06:43:51 51°14.252 2°55.324 332.1 11.1 332 12.6
2011-10-20 06:43:55 51°14.262 2°55.314 332.3 11.3 331 12.7
2011-10-20 06:44:01 51°14.279 2°55.3 331.7 11.3 331 12.6
2011-10-20 06:44:05 51°14.29 2°55.29 331.2 11.2 332 12.7
2011-10-20 06:44:10 51°14.304 2°55.278 331.9 11.4 331 13.4
2011-10-20 06:44:17 51°14.323 2°55.261 332.3 11.6 331 -999
2011-10-20 06:44:21 51°14.334 2°55.251 331.3 11.6 330 -999
2011-10-20 06:44:25 51°14.346 2°55.242 331.3 11.6 332 12.2
2011-10-20 06:44:30 51°14.36 2°55.228 331.6 11.6 330 12.7
2011-10-20 06:44:35 51°14.373 2°55.215 330.5 11.7 328 12.8
2011-10-20 06:44:41 51°14.39 2°55.198 328.7 11.7 328 12.9
2011-10-20 06:44:45 51°14.401 2°55.188 328.5 11.6 330 13.3
2011-10-20 06:44:51 51°14.418 2°55.171 329.4 11.7 328 12.8
2011-10-20 06:44:55 51°14.429 2°55.16 328.7 11.8 328 12.9
2011-10-20 06:45:01 51°14.446 2°55.143 327.7 11.9 327 12.6
2011-10-20 06:45:05 51°14.457 2°55.132 327.5 11.9 327 12.4
2011-10-20 06:45:09 51°14.468 2°55.12 327.3 11.8 327 12.6
2011-10-20 06:45:14 51°14.482 2°55.106 327.7 11.8 327 12.6
2011-10-20 06:45:19 51°14.496 2°55.092 327.3 11.8 327 12.3
2011-10-20 06:45:24 51°14.509 2°55.078 327.4 11.9 328 12.5
2011-10-20 06:45:29 51°14.523 2°55.064 328.1 11.9 327 13.6
2011-10-20 06:45:33 51°14.535 2°55.052 328 11.9 327 13.3
2011-10-20 06:45:38 51°14.549 2°55.038 327.3 12 328 13.3
2011-10-20 06:45:43 51°14.563 2°55.023 326.7 12.1 326 13.6
2011-10-20 06:45:48 51°14.577 2°55.008 326 12.2 328 13.8
2011-10-20 06:45:53 51°14.591 2°54.994 327.4 12.1 328 14
2011-10-20 06:45:58 51°14.605 2°54.98 327.2 12 327 14.4
2011-10-20 06:46:02 51°14.616 2°54.969 326.4 11.7 327 14.6
2011-10-20 06:46:08 51°14.633 2°54.953 327 11.8 329 13.7
2011-10-20 06:46:13 51°14.647 2°54.94 327.3 11.9 331 13.6
2011-10-20 06:46:17 51°14.659 2°54.931 328.2 11.9 332 13.4
2011-10-20 06:46:22 51°14.673 2°54.917 327.4 11.9 329 12.5
2011-10-20 06:46:28 51°14.689 2°54.9 325.6 11.9 327 12.6
2011-10-20 06:46:33 51°14.703 2°54.886 324.2 11.8 327 13.2
2011-10-20 06:46:37 51°14.714 2°54.875 324.3 11.9 327 13.1
2011-10-20 06:46:43 51°14.731 2°54.857 324.2 11.9 326 12.7
2011-10-20 06:46:48 51°14.745 2°54.844 324.1 11.9 328 12.9
2011-10-20 06:46:53 51°14.759 2°54.829 325.2 11.9 327 12.5
2011-10-20 06:46:57 51°14.77 2°54.817 323.6 11.9 326 12
2011-10-20 06:47:02 51°14.783 2°54.803 322.7 11.6 326 12.6
2011-10-20 06:47:07 51°14.796 2°54.79 322.7 11.3 327 13.7
2011-10-20 06:47:13 51°14.811 2°54.773 323.1 11.3 327 13.2
2011-10-20 06:47:18 51°14.824 2°54.76 323.2 11.3 327 11.9
2011-10-20 06:47:23 51°14.837 2°54.746 322.2 11.3 324 12.3
2011-10-20 06:47:28 51°14.849 2°54.731 321.7 11.2 324 12.3
2011-10-20 06:47:33 51°14.861 2°54.715 320.1 11 321 12.8
2011-10-20 06:47:37 51°14.87 2°54.702 317.5 11.2 320 13
2011-10-20 06:47:42 51°14.881 2°54.684 315.1 11.4 317 12.3
2011-10-20 06:47:47 51°14.892 2°54.667 313 11.3 315 12.3
2011-10-20 06:47:52 51°14.903 2°54.649 311.3 11.4 314 13
2011-10-20 06:47:57 51°14.914 2°54.631 310.3 11.4 314 13.6
2011-10-20 06:48:03 51°14.927 2°54.608 309.4 11.5 312 14.3
2011-10-20 06:48:07 51°14.936 2°54.594 309.2 11.5 313 13.9
2011-10-20 06:48:13 51°14.949 2°54.571 309.3 11.7 313 14.2
2011-10-20 06:48:17 51°14.958 2°54.556 310 11.7 314 13.4
2011-10-20 06:48:22 51°14.97 2°54.538 311 11.7 315 13.4
2011-10-20 06:48:27 51°14.981 2°54.519 311.3 11.7 314 13.3
2011-10-20 06:48:33 51°14.994 2°54.496 310.5 11.6 312 12.9
2011-10-20 06:48:37 51°15.002 2°54.48 307.8 11.5 310 13.9
2011-10-20 06:48:42 51°15.012 2°54.461 306.2 11.4 310 14.1
2011-10-20 06:48:47 51°15.023 2°54.442 306.6 11.4 312 14.2
2011-10-20 06:48:52 51°15.034 2°54.423 309.4 11.5 315 13.6
2011-10-20 06:48:57 51°15.046 2°54.405 312.2 11.6 317 13.9
2011-10-20 06:49:03 51°15.061 2°54.384 314.4 11.8 318 13.5
2011-10-20 06:49:07 51°15.071 2°54.371 315.8 11.7 319 12.6
2011-10-20 06:49:13 51°15.085 2°54.351 316.4 11.5 319 13.4
2011-10-20 06:49:18 51°15.098 2°54.335 317.3 11.6 321 13.4
2011-10-20 06:49:23 51°15.111 2°54.319 318.1 11.7 322 13.4
2011-10-20 06:49:27 51°15.121 2°54.307 318.5 11.7 321 14.1
2011-10-20 06:49:33 51°15.137 2°54.288 319.6 11.8 323 13.3
2011-10-20 06:49:38 51°15.15 2°54.272 319.4 11.8 322 13
2011-10-20 06:49:43 51°15.163 2°54.257 320.1 11.9 324 14.1
2011-10-20 06:49:48 51°15.177 2°54.241 321.2 12 324 13.8
2011-10-20 06:49:53 51°15.19 2°54.227 322 11.9 326 13.2
2011-10-20 06:49:57 51°15.201 2°54.214 321.8 11.9 324 13.4
2011-10-20 06:50:03 51°15.217 2°54.196 321.6 11.9 325 13.4
2011-10-20 06:50:07 51°15.228 2°54.184 322 11.5 325 13.6
2011-10-20 06:50:13 51°15.243 2°54.167 321.8 11.6 325 13.9
2011-10-20 06:50:17 51°15.254 2°54.155 322.2 11.5 326 13.9
2011-10-20 06:50:23 51°15.27 2°54.137 322.3 11.8 325 13.7
2011-10-20 06:50:27 51°15.282 2°54.126 323.4 11.9 327 13.3
2011-10-20 06:50:32 51°15.296 2°54.112 324.2 12 329 14.2
2011-10-20 06:50:37 51°15.31 2°54.098 325.1 11.8 327 13.9
2011-10-20 06:50:43 51°15.327 2°54.083 326.1 11.5 330 14.4
2011-10-20 06:50:48 51°15.34 2°54.07 326.3 11.5 329 14
2011-10-20 06:50:52 51°15.352 2°54.06 326.6 11.7 330 13.5
2011-10-20 06:50:57 51°15.366 2°54.046 326.6 11.8 329 13.4
2011-10-20 06:51:02 51°15.379 2°54.033 326 11.7 328 14.2
2011-10-20 06:51:07 51°15.393 2°54.019 325.6 11.7 328 14.3
2011-10-20 06:51:12 51°15.406 2°54.005 324.9 11.5 326 15
2011-10-20 06:51:17 51°15.42 2°53.991 324.4 11.4 325 13.7
2011-10-20 06:51:22 51°15.433 2°53.976 323.5 11.5 326 13.9
2011-10-20 06:51:27 51°15.446 2°53.962 323.1 11.6 325 13.8
2011-10-20 06:51:32 51°15.46 2°53.947 323.1 11.8 326 13.8
2011-10-20 06:51:37 51°15.473 2°53.933 323.1 11.9 325 13.9
2011-10-20 06:51:43 51°15.489 2°53.914 322.8 11.9 325 13.6
2011-10-20 06:51:47 51°15.5 2°53.902 322 11.8 323 13.1
2011-10-20 06:51:52 51°15.513 2°53.887 321.1 11.8 324 13.3
2011-10-20 06:51:58 51°15.528 2°53.867 320.7 11.8 321 14.3
2011-10-20 06:52:03 51°15.541 2°53.851 319.7 11.8 321 13
2011-10-20 06:52:08 51°15.553 2°53.835 318.2 11.7 321 13.4
2011-10-20 06:52:13 51°15.566 2°53.818 318.5 11.7 321 13.5
2011-10-20 06:52:18 51°15.578 2°53.802 318.2 11.8 320 13.6
2011-10-20 06:52:23 51°15.59 2°53.785 317.7 11.6 319 12.4
2011-10-20 06:52:28 51°15.602 2°53.768 316.3 11.3 319 13.4
2011-10-20 06:52:34 51°15.617 2°53.748 316 11.6 319 13.7
2011-10-20 06:52:38 51°15.627 2°53.734 316.4 11.6 319 13.4
2011-10-20 06:52:43 51°15.639 2°53.717 316.3 11.7 318 14.5
2011-10-20 06:52:48 51°15.651 2°53.7 316.2 11.7 319 14.7
2011-10-20 06:52:53 51°15.663 2°53.684 316.6 11.6 319 14.3
2011-10-20 06:52:58 51°15.675 2°53.667 316.6 11.4 320 13.2
2011-10-20 06:53:03 51°15.687 2°53.651 317 11.5 321 13.7
2011-10-20 06:53:08 51°15.7 2°53.636 319 11.5 323 13.9
2011-10-20 06:53:13 51°15.713 2°53.62 320.1 11.6 323 14
2011-10-20 06:53:18 51°15.727 2°53.605 321 11.8 324 13.8
2011-10-20 06:53:23 51°15.74 2°53.59 321.8 11.9 324 13.3
2011-10-20 06:53:27 51°15.751 2°53.578 321.6 12 325 13.3
2011-10-20 06:53:32 51°15.765 2°53.563 322.4 11.9 326 13.7
2011-10-20 06:53:37 51°15.778 2°53.548 323.1 12 326 13.5
2011-10-20 06:53:42 51°15.792 2°53.534 324 11.9 327 14
2011-10-20 06:53:48 51°15.809 2°53.517 324.4 12.1 327 14.5
2011-10-20 06:53:52 51°15.82 2°53.506 324.8 12 328 14.2
2011-10-20 06:53:57 51°15.834 2°53.492 325.4 12 328 14.1
2011-10-20 06:54:02 51°15.848 2°53.478 326 12 329 13.9
2011-10-20 06:54:07 51°15.863 2°53.464 326 12.1 329 14.5
2011-10-20 06:54:12 51°15.877 2°53.451 326 11.8 329 13.4
2011-10-20 06:54:17 51°15.891 2°53.438 326 11.8 329 13.8
2011-10-20 06:54:22 51°15.905 2°53.424 326 11.8 328 13.9
2011-10-20 06:54:27 51°15.919 2°53.41 325.5 11.9 329 13.9
2011-10-20 06:54:32 51°15.933 2°53.398 326.6 11.8 331 13.1
2011-10-20 06:54:37 51°15.948 2°53.386 328.8 11.8 333 14
2011-10-20 06:54:43 51°15.965 2°53.373 330.5 11.5 335 14.4
2011-10-20 06:54:48 51°15.98 2°53.362 331.8 11.7 336 13.8
2011-10-20 06:54:53 51°15.996 2°53.352 333.3 11.9 338 13.6
2011-10-20 06:54:58 51°16.011 2°53.342 335 11.9 338 14.1
2011-10-20 06:55:03 51°16.026 2°53.333 336 11.8 338 14.1
2011-10-20 06:55:07 51°16.038 2°53.327 337.3 11.6 341 13.5
2011-10-20 06:55:13 51°16.056 2°53.317 337.6 11.6 342 13.5
2011-10-20 06:55:17 51°16.069 2°53.311 338.4 11.7 342 13.7
2011-10-20 06:55:22 51°16.084 2°53.303 339 11.7 342 12.9
2011-10-20 06:55:27 51°16.1 2°53.295 338.9 11.7 342 13
2011-10-20 06:55:32 51°16.115 2°53.286 339 11.9 342 13.8
2011-10-20 06:55:37 51°16.131 2°53.278 339 11.9 341 13.4
2011-10-20 06:55:42 51°16.146 2°53.27 339 11.8 342 13
2011-10-20 06:55:47 51°16.162 2°53.262 338.9 11.8 341 13
2011-10-20 06:55:52 51°16.178 2°53.253 338.3 11.9 341 13.9
2011-10-20 06:55:57 51°16.193 2°53.245 337.8 11.9 340 14.4
2011-10-20 06:56:02 51°16.209 2°53.236 337.5 11.9 340 14
2011-10-20 06:56:07 51°16.224 2°53.227 336.9 12 340 14.2
2011-10-20 06:56:13 51°16.243 2°53.215 336.3 11.9 339 14.1
2011-10-20 06:56:17 51°16.255 2°53.208 336.6 12 340 14
2011-10-20 06:56:22 51°16.271 2°53.198 337.2 12 340 14.2
2011-10-20 06:56:28 51°16.29 2°53.186 336.4 12.2 338 14
2011-10-20 06:56:33 51°16.305 2°53.176 336.1 12.1 339 13.3
2011-10-20 06:56:38 51°16.32 2°53.167 335.7 11.9 339 13.1
2011-10-20 06:56:42 51°16.332 2°53.159 335.7 11.6 339 14.1
2011-10-20 06:56:47 51°16.348 2°53.151 336.1 11.9 340 13.6
2011-10-20 06:56:52 51°16.363 2°53.142 336.4 11.6 339 13.5
2011-10-20 06:56:57 51°16.378 2°53.132 336.2 11.6 339 14.3
2011-10-20 06:57:03 51°16.396 2°53.121 335.5 11.9 339 14.3
2011-10-20 06:57:08 51°16.412 2°53.111 335.4 11.9 338 14.4
2011-10-20 06:57:14 51°16.43 2°53.1 335.2 11.7 338 14.3
2011-10-20 06:57:17 51°16.439 2°53.093 334.4 11.8 337 13.1
2011-10-20 06:57:23 51°16.457 2°53.082 333.8 11.5 337 13.4
2011-10-20 06:57:27 51°16.469 2°53.073 333.6 11.6 337 14
2011-10-20 06:57:34 51°16.49 2°53.059 333 11.7 337 13.7
2011-10-20 06:57:37 51°16.499 2°53.052 332.5 11.8 336 13.7
2011-10-20 06:57:42 51°16.514 2°53.042 332.7 12 336 13.9
2011-10-20 06:57:47 51°16.529 2°53.031 332.7 12.1 335 13.3
2011-10-20 06:57:53 51°16.547 2°53.018 332.1 12.1 335 13.7
2011-10-20 06:57:57 51°16.559 2°53.009 332.1 12 335 13.2
2011-10-20 06:58:03 51°16.577 2°52.996 331.9 12 335 13.5
2011-10-20 06:58:07 51°16.59 2°52.987 332.7 12 336 12.9
2011-10-20 06:58:13 51°16.608 2°52.975 332.9 12 336 13.3
2011-10-20 06:58:17 51°16.62 2°52.966 332.9 12.2 337 13.5
2011-10-20 06:58:23 51°16.639 2°52.953 333.1 12 336 13
2011-10-20 06:58:27 51°16.651 2°52.945 333.3 12.1 337 13.6
2011-10-20 06:58:33 51°16.67 2°52.932 333.2 12 337 14
2011-10-20 06:58:38 51°16.685 2°52.922 333.9 11.9 337 13.7
2011-10-20 06:58:42 51°16.697 2°52.914 333.7 11.8 337 13.5
2011-10-20 06:58:47 51°16.712 2°52.904 333.8 11.6 338 12.6
2011-10-20 06:58:52 51°16.727 2°52.895 334.7 11.8 338 12.3
2011-10-20 06:58:57 51°16.743 2°52.885 335.3 12 339 12.3
2011-10-20 06:59:02 51°16.758 2°52.875 334.9 11.7 338 12.1
2011-10-20 06:59:07 51°16.772 2°52.866 334.8 11.5 339 11.2
2011-10-20 06:59:13 51°16.79 2°52.855 335 11.7 338 10.6
2011-10-20 06:59:17 51°16.802 2°52.847 335.3 11.7 339 11.8
2011-10-20 06:59:22 51°16.817 2°52.837 334.7 11.6 338 11.3
2011-10-20 06:59:28 51°16.836 2°52.826 334.8 11.8 338 11.4
2011-10-20 06:59:32 51°16.848 2°52.818 335.3 11.8 338 11.4
2011-10-20 06:59:37 51°16.863 2°52.808 335 12 338 10.9
2011-10-20 06:59:42 51°16.879 2°52.799 336 12.1 339 11
2011-10-20 06:59:47 51°16.894 2°52.789 335.5 12.1 338 11.1
2011-10-20 06:59:53 51°16.913 2°52.777 335.5 12.2 339 11.7
2011-10-20 06:59:57 51°16.925 2°52.769 335.4 12 338 10.9
2011-10-20 07:00:02 51°16.941 2°52.759 335.7 12.2 338 11
2011-10-20 07:00:07 51°16.956 2°52.749 335.5 12.3 338 10.7
2011-10-20 07:00:12 51°16.972 2°52.739 335.9 12.3 339 10.9
2011-10-20 07:00:17 51°16.988 2°52.73 335.4 12.3 339 11.4
2011-10-20 07:00:22 51°17.004 2°52.721 337.3 12.3 342 11.7
2011-10-20 07:00:27 51°17.02 2°52.714 339.9 12.3 344 11.9
2011-10-20 07:00:32 51°17.037 2°52.707 341.2 12.3 345 12.1
2011-10-20 07:00:37 51°17.053 2°52.7 342.3 12.2 346 11.7
2011-10-20 07:00:42 51°17.07 2°52.694 343.3 12.2 346 11.4
2011-10-20 07:00:47 51°17.086 2°52.688 343.6 12.3 348 12
2011-10-20 07:00:52 51°17.103 2°52.683 344.9 12.1 348 11.1
2011-10-20 07:00:57 51°17.119 2°52.678 346.4 12.2 350 11.1
2011-10-20 07:01:02 51°17.136 2°52.673 346.9 12.1 349 11.2
2011-10-20 07:01:07 51°17.152 2°52.668 347 12.1 350 11.5
2011-10-20 07:01:12 51°17.169 2°52.664 347.8 12.2 351 11.9
2011-10-20 07:01:17 51°17.186 2°52.659 348.2 12.3 350 11.4
2011-10-20 07:01:22 51°17.203 2°52.655 348.1 12.3 350 11.1
2011-10-20 07:01:28 51°17.223 2°52.65 348.3 12.2 350 11.3
2011-10-20 07:01:32 51°17.236 2°52.646 348.5 12 349 11.7
2011-10-20 07:01:37 51°17.252 2°52.64 347.9 11.7 348 12.9
2011-10-20 07:01:42 51°17.268 2°52.636 347.6 11.5 350 13.1
2011-10-20 07:01:47 51°17.284 2°52.63 346.2 11.6 348 12.7
2011-10-20 07:01:52 51°17.3 2°52.626 346.5 11.6 350 11.7
2011-10-20 07:01:57 51°17.316 2°52.621 347 11.7 349 11.9
2011-10-20 07:02:03 51°17.335 2°52.615 346.8 11.9 350 11
2011-10-20 07:02:07 51°17.348 2°52.611 346.4 11.8 349 11.2
2011-10-20 07:02:12 51°17.364 2°52.607 346.9 11.9 350 11
2011-10-20 07:02:17 51°17.38 2°52.602 347 11.8 349 11.9
2011-10-20 07:02:22 51°17.396 2°52.596 347 11.9 348 11.7
2011-10-20 07:02:27 51°17.412 2°52.591 346.9 12.1 349 12.5
2011-10-20 07:02:32 51°17.429 2°52.587 346.7 12 350 12.4
2011-10-20 07:02:37 51°17.445 2°52.581 346.5 12 348 11.7
2011-10-20 07:02:42 51°17.461 2°52.575 346 12.1 347 11.9
2011-10-20 07:02:47 51°17.478 2°52.569 345.1 12 347 11.9
2011-10-20 07:02:52 51°17.494 2°52.563 345.2 12.1 347 11.2
2011-10-20 07:02:57 51°17.51 2°52.557 344.5 12.2 346 11.8
2011-10-20 07:03:02 51°17.527 2°52.551 343.9 12.3 347 11.4
2011-10-20 07:03:07 51°17.543 2°52.544 343.4 12.1 346 11.3
2011-10-20 07:03:12 51°17.559 2°52.539 343.8 12.1 348 12.1
2011-10-20 07:03:17 51°17.575 2°52.534 345.7 12 351 12.5
2011-10-20 07:03:22 51°17.592 2°52.529 347.4 11.9 349 12.6
2011-10-20 07:03:27 51°17.608 2°52.526 347.7 12 352 12.5
2011-10-20 07:03:33 51°17.628 2°52.52 348.5 11.9 351 11.4
2011-10-20 07:03:37 51°17.641 2°52.518 349.7 12 353 11.6
2011-10-20 07:03:42 51°17.657 2°52.514 349.7 11.7 351 11.8
2011-10-20 07:03:48 51°17.676 2°52.511 350.6 11.6 354 -999
2011-10-20 07:03:53 51°17.692 2°52.508 351.2 11.7 354 12.5
2011-10-20 07:03:57 51°17.705 2°52.505 350.6 11.7 353 12.7
2011-10-20 07:04:02 51°17.722 2°52.504 351.2 12 356 12
2011-10-20 07:04:08 51°17.742 2°52.501 352.6 12 355 12
2011-10-20 07:04:12 51°17.755 2°52.5 353.1 12.2 357 12.3
2011-10-20 07:04:18 51°17.775 2°52.498 353.8 12.1 357 12.9
2011-10-20 07:04:23 51°17.792 2°52.497 354 12.1 357 12.4
2011-10-20 07:04:27 51°17.806 2°52.496 355.3 12.4 359 11.7
2011-10-20 07:04:32 51°17.823 2°52.495 354.8 12.2 357 12.3
2011-10-20 07:04:37 51°17.839 2°52.494 355.3 12.2 358 12
2011-10-20 07:04:42 51°17.856 2°52.493 356.5 12.3 358 11.8
2011-10-20 07:04:47 51°17.874 2°52.493 356.7 12.4 359 12.1
2011-10-20 07:04:53 51°17.894 2°52.491 356.1 12.2 358 11.6
2011-10-20 07:04:57 51°17.908 2°52.491 356.5 12.3 359 12
2011-10-20 07:05:02 51°17.925 2°52.49 356.9 12.4 358 12.2
2011-10-20 07:05:07 51°17.942 2°52.49 356.9 12.4 359 12.2
2011-10-20 07:05:12 51°17.959 2°52.489 356.9 12.4 358 12.2
2011-10-20 07:05:17 51°17.976 2°52.488 356.3 12.4 359 12.4
2011-10-20 07:05:23 51°17.997 2°52.488 356.6 12.4 358 12.5
2011-10-20 07:05:28 51°18.014 2°52.487 356.3 12.2 359 13.6
2011-10-20 07:05:32 51°18.028 2°52.487 355.7 12 358 12
2011-10-20 07:05:37 51°18.044 2°52.486 355.7 12.3 359 11.8
2011-10-20 07:05:43 51°18.064 2°52.485 356.5 12.2 359 12.3
2011-10-20 07:05:48 51°18.081 2°52.484 355.4 12.1 357 12.3
2011-10-20 07:05:53 51°18.097 2°52.483 355 12 358 12
2011-10-20 07:05:57 51°18.111 2°52.483 355.7 12.2 358 12
2011-10-20 07:06:02 51°18.128 2°52.481 354.7 12.2 357 12.2
2011-10-20 07:06:08 51°18.147 2°52.479 354.6 11.8 357 12.9
2011-10-20 07:06:13 51°18.164 2°52.478 354.7 11.7 356 12.7
2011-10-20 07:06:17 51°18.177 2°52.476 353.7 11.8 355 13
2011-10-20 07:06:22 51°18.194 2°52.474 353.6 11.8 355 13
2011-10-20 07:06:27 51°18.21 2°52.472 353.6 11.9 356 13.1
2011-10-20 07:06:32 51°18.227 2°52.47 353.7 12.1 356 12.9
2011-10-20 07:06:37 51°18.244 2°52.468 353.8 12 356 13.1
2011-10-20 07:06:42 51°18.26 2°52.466 353.6 11.8 355 13.4
2011-10-20 07:06:47 51°18.276 2°52.464 353.5 11.9 354 13.8
2011-10-20 07:06:52 51°18.293 2°52.462 353.2 12 356 12.8
2011-10-20 07:06:57 51°18.31 2°52.46 353.5 11.8 355 13.7
2011-10-20 07:07:02 51°18.326 2°52.458 353 11.7 355 12.9
2011-10-20 07:07:07 51°18.342 2°52.456 352.9 11.7 355 12.4
2011-10-20 07:07:12 51°18.359 2°52.453 352.9 11.7 355 12.3
2011-10-20 07:07:17 51°18.375 2°52.451 353.1 11.7 355 12.9
2011-10-20 07:07:22 51°18.391 2°52.449 353.1 11.8 355 12.7
2011-10-20 07:07:27 51°18.408 2°52.447 352.9 12 354 13.1
2011-10-20 07:07:32 51°18.424 2°52.445 352.5 11.8 356 12.3
2011-10-20 07:07:37 51°18.44 2°52.443 353 11.9 356 13.3
2011-10-20 07:07:42 51°18.456 2°52.441 353.6 11.9 356 13.2
2011-10-20 07:07:47 51°18.473 2°52.439 353.9 11.9 356 13
2011-10-20 07:07:52 51°18.49 2°52.438 354.5 12.1 357 13.5
2011-10-20 07:07:57 51°18.507 2°52.436 354.4 12.3 357 13
2011-10-20 07:08:02 51°18.523 2°52.434 353.3 12 356 12.9
2011-10-20 07:08:07 51°18.54 2°52.433 354.1 11.9 358 13.2
2011-10-20 07:08:12 51°18.556 2°52.432 355 11.8 357 13.9
2011-10-20 07:08:18 51°18.575 2°52.431 355.7 11.4 357 13.8
2011-10-20 07:08:22 51°18.588 2°52.43 355.3 11.7 358 12.7
2011-10-20 07:08:27 51°18.604 2°52.428 355.4 11.5 357 13.6
2011-10-20 07:08:33 51°18.623 2°52.428 355.5 11.5 359 14
2011-10-20 07:08:37 51°18.636 2°52.427 355.5 11.5 359 13.8
2011-10-20 07:08:42 51°18.652 2°52.427 356.2 11.7 359 13.9
2011-10-20 07:08:47 51°18.669 2°52.425 355.6 11.7 357 14.2
2011-10-20 07:08:53 51°18.688 2°52.424 355.7 11.7 357 13.9
2011-10-20 07:08:57 51°18.701 2°52.423 355.4 11.7 358 13.6
2011-10-20 07:09:02 51°18.717 2°52.422 355.5 11.5 356 14.2
2011-10-20 07:09:07 51°18.733 2°52.421 355.3 11.8 359 14.4
2011-10-20 07:09:12 51°18.749 2°52.419 355 11.7 357 13.8
2011-10-20 07:09:17 51°18.765 2°52.418 354.4 11.8 356 13.9
2011-10-20 07:09:22 51°18.782 2°52.416 354 11.8 356 14.4
2011-10-20 07:09:27 51°18.798 2°52.414 353.4 12 356 14.1
2011-10-20 07:09:32 51°18.815 2°52.413 353.7 11.9 357 14.6
2011-10-20 07:09:37 51°18.831 2°52.411 353.9 11.9 356 14.6
2011-10-20 07:09:42 51°18.848 2°52.409 354.2 12.1 356 14.6
2011-10-20 07:09:47 51°18.865 2°52.407 353.6 12.1 355 14.3
2011-10-20 07:09:52 51°18.881 2°52.404 353.5 12.1 355 14.9
2011-10-20 07:09:57 51°18.898 2°52.402 352.6 12.1 355 13.6
2011-10-20 07:10:02 51°18.914 2°52.4 352.4 11.6 356 -999
2011-10-20 07:10:08 51°18.932 2°52.398 353.6 11.2 355 14.3
2011-10-20 07:10:13 51°18.948 2°52.396 354.1 11.6 357 14.6
2011-10-20 07:10:17 51°18.961 2°52.394 353.9 11.7 356 14.7
2011-10-20 07:10:23 51°18.981 2°52.392 354.3 11.7 357 14.6
2011-10-20 07:10:27 51°18.994 2°52.391 354.4 11.8 357 15.5
2011-10-20 07:10:32 51°19.01 2°52.39 353.9 11.9 357 15.2
2011-10-20 07:10:37 51°19.027 2°52.389 354.1 11.9 358 14.9
2011-10-20 07:10:42 51°19.043 2°52.388 355 11.7 358 15.4
2011-10-20 07:10:47 51°19.06 2°52.388 356.3 11.6 358 15.3
2011-10-20 07:10:53 51°19.079 2°52.387 355.9 11.5 359 14.8
2011-10-20 07:10:58 51°19.095 2°52.386 355.8 11.6 -999 -999
2011-10-20 07:11:03 51°19.11 2°52.385 356.3 11.4 359 15
2011-10-20 07:11:08 51°19.126 2°52.386 356.6 11.1 -999 14.5
2011-10-20 07:11:13 51°19.141 2°52.386 356.4 10.8 1 -999
2011-10-20 07:11:19 51°19.16 2°52.385 357.2 11.2 357 15.5
2011-10-20 07:11:24 51°19.175 2°52.384 356.2 11.4 358 16.6
2011-10-20 07:11:29 51°19.191 2°52.384 355 11.3 359 -999
2011-10-20 07:11:34 51°19.206 2°52.383 355.1 11.4 357 15.4
2011-10-20 07:11:39 51°19.222 2°52.382 355.1 11.1 359 17.4
2011-10-20 07:11:45 51°19.24 2°52.381 354.6 11.2 358 -999
2011-10-20 07:11:49 51°19.253 2°52.379 354.8 11.3 356 15.9
2011-10-20 07:11:54 51°19.269 2°52.378 354.1 11.6 357 16
2011-10-20 07:11:59 51°19.285 2°52.375 353.8 11.8 356 16.7
2011-10-20 07:12:04 51°19.301 2°52.374 353.6 11.7 356 16.9
2011-10-20 07:12:09 51°19.318 2°52.371 353.4 11.7 354 17
2011-10-20 07:12:14 51°19.333 2°52.369 352.7 11.4 355 16.9
2011-10-20 07:12:19 51°19.349 2°52.367 352.6 11.5 354 16.7
2011-10-20 07:12:24 51°19.365 2°52.365 352.6 11.7 355 16.4
2011-10-20 07:12:29 51°19.381 2°52.362 352.6 11.7 354 16.6
2011-10-20 07:12:33 51°19.394 2°52.36 352.5 11.7 355 16.7
2011-10-20 07:12:38 51°19.411 2°52.358 352.3 11.6 357 16
2011-10-20 07:12:44 51°19.43 2°52.357 352.7 11.7 358 -999
2011-10-20 07:12:49 51°19.446 2°52.355 354.4 11.5 356 -999
2011-10-20 07:12:54 51°19.462 2°52.353 354.3 11.5 357 16.8
2011-10-20 07:12:59 51°19.478 2°52.352 353.5 11.7 358 16.9
2011-10-20 07:13:04 51°19.494 2°52.351 354.7 11.7 356 17.5
2011-10-20 07:13:09 51°19.51 2°52.349 354.7 11.7 356 17.9
2011-10-20 07:13:13 51°19.523 2°52.348 354.3 11.8 356 18
2011-10-20 07:13:18 51°19.539 2°52.347 354 11.7 357 17.2
2011-10-20 07:13:23 51°19.555 2°52.345 354.3 11.7 357 17
2011-10-20 07:13:28 51°19.571 2°52.343 354.3 11.6 356 16.7
2011-10-20 07:13:33 51°19.587 2°52.341 354 11.6 356 16.3
2011-10-20 07:13:37 51°19.601 2°52.34 353.8 11.5 356 16.8
2011-10-20 07:13:42 51°19.616 2°52.338 353.7 11.4 356 17.5
2011-10-20 07:13:47 51°19.632 2°52.337 354.3 11.6 356 17.2
2011-10-20 07:13:52 51°19.648 2°52.335 353.5 11.6 356 17.1
2011-10-20 07:13:57 51°19.665 2°52.333 354 11.8 355 17.9
2011-10-20 07:14:02 51°19.681 2°52.331 353.2 11.9 356 17.3
2011-10-20 07:14:07 51°19.698 2°52.328 353.1 11.7 354 17.7
2011-10-20 07:14:12 51°19.714 2°52.326 353.5 11.9 356 17.6
2011-10-20 07:14:17 51°19.731 2°52.324 353.2 12 355 16.9
2011-10-20 07:14:22 51°19.747 2°52.322 353.4 12.1 355 17
2011-10-20 07:14:27 51°19.764 2°52.32 353.3 12 355 16.8
2011-10-20 07:14:33 51°19.784 2°52.318 353.6 11.9 357 16.6
2011-10-20 07:14:37 51°19.797 2°52.317 353.9 12 357 17.4
2011-10-20 07:14:42 51°19.813 2°52.315 354.3 11.9 356 17.5
2011-10-20 07:14:47 51°19.83 2°52.314 354.3 11.9 357 18.1
2011-10-20 07:14:52 51°19.846 2°52.312 355.1 11.7 356 17.1
2011-10-20 07:14:57 51°19.862 2°52.31 354.6 11.7 358 18.1
2011-10-20 07:15:02 51°19.879 2°52.309 355 11.7 356 18.1
2011-10-20 07:15:07 51°19.895 2°52.309 355.4 11.8 359 17.8
2011-10-20 07:15:12 51°19.911 2°52.307 355.3 11.8 356 17.6
2011-10-20 07:15:17 51°19.928 2°52.306 356.3 11.8 359 18.2
2011-10-20 07:15:22 51°19.944 2°52.305 355.7 11.8 357 18.7
2011-10-20 07:15:27 51°19.961 2°52.303 355.7 11.9 357 17.4
2011-10-20 07:15:32 51°19.977 2°52.302 354.6 11.8 356 17.5
2011-10-20 07:15:37 51°19.994 2°52.3 355 11.9 358 17.7
2011-10-20 07:15:42 51°20.01 2°52.298 354.9 12.1 356 17.4
2011-10-20 07:15:47 51°20.027 2°52.297 355.3 12.1 358 16.8
2011-10-20 07:15:52 51°20.043 2°52.296 355.3 11.8 357 17.5
2011-10-20 07:15:57 51°20.059 2°52.294 355 11.9 356 17.8
2011-10-20 07:16:02 51°20.076 2°52.293 354.9 12.1 357 17.5
2011-10-20 07:16:07 51°20.093 2°52.291 355.1 12.2 357 17.1
2011-10-20 07:16:12 51°20.11 2°52.29 355.3 12.1 357 17.5
2011-10-20 07:16:17 51°20.127 2°52.289 356.2 12.1 358 17.8
2011-10-20 07:16:22 51°20.143 2°52.287 355.3 12 356 18.1
2011-10-20 07:16:27 51°20.16 2°52.286 355.3 12.2 356 18
2011-10-20 07:16:32 51°20.177 2°52.284 355 12.1 356 17.1
2011-10-20 07:16:37 51°20.193 2°52.282 353.7 11.9 357 17.4
2011-10-20 07:16:42 51°20.21 2°52.28 354.6 12 355 18
2011-10-20 07:16:47 51°20.226 2°52.278 353.8 11.9 355 17.6
2011-10-20 07:16:52 51°20.242 2°52.276 353.5 11.9 355 18.1
2011-10-20 07:16:57 51°20.259 2°52.274 352.8 11.8 355 17.3
2011-10-20 07:17:02 51°20.275 2°52.271 353.4 11.7 354 17.8
2011-10-20 07:17:07 51°20.291 2°52.268 352.3 12 354 18.1
2011-10-20 07:17:13 51°20.31 2°52.265 352.4 11.5 354 -999
2011-10-20 07:17:18 51°20.325 2°52.263 351.6 10.9 355 -999
2011-10-20 07:17:24 51°20.343 2°52.26 353.1 11.1 354 -999
2011-10-20 07:17:29 51°20.358 2°52.258 352.9 11.1 355 16.1
2011-10-20 07:17:34 51°20.374 2°52.256 352.9 11.3 355 16.6
2011-10-20 07:17:39 51°20.39 2°52.254 354 11.4 355 16
2011-10-20 07:17:44 51°20.406 2°52.252 353.6 11.6 355 16.8
2011-10-20 07:17:49 51°20.422 2°52.249 353.6 11.7 353 16.2
2011-10-20 07:17:53 51°20.435 2°52.247 353.3 11.8 355 16.8
2011-10-20 07:17:58 51°20.451 2°52.244 352.7 11.6 354 16.3
2011-10-20 07:18:03 51°20.467 2°52.242 352.9 11.8 356 16.4
2011-10-20 07:18:08 51°20.483 2°52.239 353.2 11.8 353 15.9
2011-10-20 07:18:13 51°20.499 2°52.236 353 11.7 354 15.9
2011-10-20 07:18:17 51°20.512 2°52.234 352.6 11.8 354 15.3
2011-10-20 07:18:22 51°20.528 2°52.231 353.1 11.9 355 16.1
2011-10-20 07:18:27 51°20.544 2°52.229 353.8 11.9 356 15.4
2011-10-20 07:18:32 51°20.561 2°52.228 354.5 11.8 357 16.1
2011-10-20 07:18:37 51°20.577 2°52.226 355 11.9 357 16.9
2011-10-20 07:18:42 51°20.593 2°52.225 355.2 11.7 357 15.4
2011-10-20 07:18:47 51°20.609 2°52.224 355.7 11.3 357 17
2011-10-20 07:18:53 51°20.627 2°52.223 356.2 11.2 358 -999
2011-10-20 07:18:58 51°20.643 2°52.222 356.6 11.4 359 15.2
2011-10-20 07:19:03 51°20.659 2°52.221 356.7 11.3 357 16.8
2011-10-20 07:19:08 51°20.674 2°52.22 356.4 11.4 358 16.4
2011-10-20 07:19:13 51°20.69 2°52.218 355.8 11.2 357 15.8
2011-10-20 07:19:17 51°20.702 2°52.218 355.8 11.3 357 16
2011-10-20 07:19:22 51°20.718 2°52.216 355.7 11.5 356 15.6
2011-10-20 07:19:27 51°20.734 2°52.215 355.3 11.5 357 15.9
2011-10-20 07:19:32 51°20.75 2°52.213 355.3 11.6 357 16.3
2011-10-20 07:19:37 51°20.766 2°52.212 355.3 11.7 358 15.6
2011-10-20 07:19:42 51°20.782 2°52.21 355.8 11.6 356 15.8
2011-10-20 07:19:47 51°20.799 2°52.208 355.5 11.7 355 16.1
2011-10-20 07:19:52 51°20.815 2°52.206 355 12.1 356 16.4
2011-10-20 07:19:57 51°20.831 2°52.203 353.7 11.7 354 15.2
2011-10-20 07:20:02 51°20.847 2°52.201 353.4 11.4 355 15.9
2011-10-20 07:20:07 51°20.863 2°52.199 353.9 11.5 355 16.3
2011-10-20 07:20:12 51°20.879 2°52.196 354 11.6 354 16
2011-10-20 07:20:17 51°20.895 2°52.193 352.7 11.7 353 16
2011-10-20 07:20:22 51°20.911 2°52.19 353 11.8 354 15.4
2011-10-20 07:20:27 51°20.928 2°52.187 352.5 11.9 354 15.7
2011-10-20 07:20:32 51°20.944 2°52.185 352.8 12 354 17.3
2011-10-20 07:20:37 51°20.96 2°52.182 352.8 11.9 355 16.3
2011-10-20 07:20:42 51°20.977 2°52.179 353.6 12 355 16.4
2011-10-20 07:20:47 51°20.993 2°52.177 354 11.8 355 16.9
2011-10-20 07:20:52 51°21.009 2°52.176 355.7 11.9 358 17.5
2011-10-20 07:20:57 51°21.026 2°52.175 357 11.9 357 17.7
2011-10-20 07:21:02 51°21.042 2°52.175 357.5 11.9 -999 17.2
2011-10-20 07:21:07 51°21.059 2°52.174 358.4 11.9 359 17.7
2011-10-20 07:21:12 51°21.075 2°52.175 359.1 11.9 1 18.2
2011-10-20 07:21:17 51°21.092 2°52.175 359.6 12.1 -999 17.6
2011-10-20 07:21:22 51°21.109 2°52.176 0.1 12.2 2 17.7
2011-10-20 07:21:27 51°21.126 2°52.176 0.8 12.2 2 17.3
2011-10-20 07:21:32 51°21.143 2°52.177 0.9 12.3 2 17.5
2011-10-20 07:21:37 51°21.16 2°52.178 0.9 12.3 1 17.1
2011-10-20 07:21:42 51°21.177 2°52.18 2.1 12 4 18.3
2011-10-20 07:21:47 51°21.194 2°52.18 1.6 12 2 18.3
2011-10-20 07:21:53 51°21.214 2°52.182 1.5 12.1 2 18.3
2011-10-20 07:21:57 51°21.227 2°52.183 1.1 11.9 2 18.6
2011-10-20 07:22:02 51°21.243 2°52.185 0.7 11.7 4 20
2011-10-20 07:22:07 51°21.26 2°52.186 1.1 11.6 3 19
2011-10-20 07:22:12 51°21.276 2°52.187 1.2 11.6 3 18.9
2011-10-20 07:22:17 51°21.291 2°52.188 1.3 11.5 3 20.1
2011-10-20 07:22:22 51°21.308 2°52.19 1.1 11.7 3 20
2011-10-20 07:22:27 51°21.324 2°52.19 0.7 11.8 2 19.4
2011-10-20 07:22:32 51°21.34 2°52.191 0.1 11.7 1 19.6
2011-10-20 07:22:37 51°21.357 2°52.192 0.4 11.9 2 19.4
2011-10-20 07:22:42 51°21.373 2°52.191 359.6 11.8 -999 20.5
2011-10-20 07:22:47 51°21.389 2°52.191 358.6 11.8 -999 20.9
2011-10-20 07:22:52 51°21.406 2°52.191 358.5 12 -999 20.7
2011-10-20 07:22:57 51°21.423 2°52.191 358.6 11.9 359 21
2011-10-20 07:23:02 51°21.439 2°52.19 357.5 12 359 21.4
2011-10-20 07:23:07 51°21.456 2°52.19 357.3 11.9 359 20.6
2011-10-20 07:23:12 51°21.472 2°52.189 357.1 11.9 359 21.1
2011-10-20 07:23:17 51°21.488 2°52.188 357.7 11.9 358 21.3
2011-10-20 07:23:22 51°21.505 2°52.188 357.2 12.1 359 21.4
2011-10-20 07:23:27 51°21.522 2°52.187 356.5 11.9 358 21.6
2011-10-20 07:23:33 51°21.542 2°52.187 357.4 12 -999 22.8
2011-10-20 07:23:37 51°21.555 2°52.186 357.9 11.8 359 22.5
2011-10-20 07:23:42 51°21.571 2°52.186 358 11.7 359 22.3
2011-10-20 07:23:47 51°21.587 2°52.185 357.3 11.5 -999 23.8
2011-10-20 07:23:52 51°21.603 2°52.186 358.8 11.6 -999 23
2011-10-20 07:23:57 51°21.619 2°52.186 359.1 11.6 -999 22.7
2011-10-20 07:24:02 51°21.635 2°52.187 359.4 11.6 1 22.2
2011-10-20 07:24:07 51°21.651 2°52.188 359.8 11.5 2 22.8
2011-10-20 07:24:12 51°21.666 2°52.188 -999 11.5 3 24.2
2011-10-20 07:24:17 51°21.682 2°52.189 0.2 11.5 2 23.6
2011-10-20 07:24:22 51°21.698 2°52.19 1 11.6 2 23.8
2011-10-20 07:24:27 51°21.715 2°52.19 -999 11.6 2 24.9
2011-10-20 07:24:33 51°21.734 2°52.191 0.1 11.6 2 24
2011-10-20 07:24:37 51°21.747 2°52.192 1 11.5 2 23.6
2011-10-20 07:24:42 51°21.763 2°52.193 0.4 11.7 2 24
2011-10-20 07:24:47 51°21.779 2°52.194 0.6 11.6 2 25
2011-10-20 07:24:52 51°21.795 2°52.195 0.6 11.7 3 25.2
2011-10-20 07:24:57 51°21.812 2°52.196 0.9 11.7 2 24.6
2011-10-20 07:25:02 51°21.828 2°52.197 0.6 11.7 3 25.1
2011-10-20 07:25:07 51°21.844 2°52.198 0.5 11.6 3 25.5
2011-10-20 07:25:12 51°21.861 2°52.2 1.3 11.8 3 25.7
2011-10-20 07:25:17 51°21.877 2°52.201 1.5 11.8 2 25.3
2011-10-20 07:25:22 51°21.894 2°52.202 0.7 11.9 2 25.1
2011-10-20 07:25:27 51°21.91 2°52.203 0.1 11.5 3 24
2011-10-20 07:25:33 51°21.929 2°52.205 359.9 11.6 3 26.1
2011-10-20 07:25:38 51°21.945 2°52.205 0.8 11.7 2 26.5
2011-10-20 07:25:43 51°21.961 2°52.206 359.6 11.8 1 25.9
2011-10-20 07:25:48 51°21.977 2°52.207 359.6 11.8 2 25.5
2011-10-20 07:25:53 51°21.994 2°52.207 359 11.7 -999 25.1
2011-10-20 07:25:57 51°22.007 2°52.207 359.2 11.9 1 24.7
2011-10-20 07:26:02 51°22.023 2°52.206 358 11.8 -999 25.6
2011-10-20 07:26:07 51°22.04 2°52.206 358.2 11.9 358 25.1
2011-10-20 07:26:13 51°22.059 2°52.206 357.7 11.9 359 25.2
2011-10-20 07:26:17 51°22.073 2°52.205 357.1 12.1 358 25.4
2011-10-20 07:26:22 51°22.089 2°52.204 356.6 12.2 359 25.6
2011-10-20 07:26:27 51°22.106 2°52.205 357.3 12 -999 24.7
2011-10-20 07:26:32 51°22.123 2°52.205 357.6 12 1 24.4
2011-10-20 07:26:37 51°22.139 2°52.204 357.9 12 -999 25.3
2011-10-20 07:26:42 51°22.156 2°52.205 357.9 12 -999 25.1
2011-10-20 07:26:47 51°22.172 2°52.204 357.5 12 359 26
2011-10-20 07:26:53 51°22.193 2°52.203 357.5 11.9 359 24.9
2011-10-20 07:26:57 51°22.206 2°52.203 357.3 11.9 359 25
2011-10-20 07:27:02 51°22.222 2°52.203 357.5 11.6 -999 26.5
2011-10-20 07:27:08 51°22.242 2°52.203 357.1 11.7 1 -999
2011-10-20 07:27:13 51°22.258 2°52.203 358.5 11.7 -999 24.5
2011-10-20 07:27:18 51°22.274 2°52.203 358.3 11.6 -999 25.4
2011-10-20 07:27:23 51°22.29 2°52.203 357.9 11.6 -999 24.9
2011-10-20 07:27:28 51°22.306 2°52.203 358.8 11.7 -999 24.2
2011-10-20 07:27:33 51°22.322 2°52.203 359.1 11.7 -999 24.2
2011-10-20 07:27:37 51°22.335 2°52.204 359 11.5 2 24.6
2011-10-20 07:27:42 51°22.352 2°52.205 0.1 11.6 2 24.5
2011-10-20 07:27:47 51°22.368 2°52.205 0.4 11.6 1 24.5
2011-10-20 07:27:52 51°22.384 2°52.206 359.8 11.9 2 24.8
2011-10-20 07:27:57 51°22.401 2°52.206 0.4 12 1 24.5
2011-10-20 07:28:02 51°22.417 2°52.207 0.1 12.1 2 23.6
2011-10-20 07:28:07 51°22.434 2°52.208 0.9 11.9 1 23.6
2011-10-20 07:28:12 51°22.45 2°52.209 0.3 12.1 2 24.9
2011-10-20 07:28:17 51°22.467 2°52.21 0.5 11.9 2 25.2
2011-10-20 07:28:22 51°22.483 2°52.21 0.6 12.1 1 24.5
2011-10-20 07:28:27 51°22.5 2°52.212 1 12.2 3 23.3
2011-10-20 07:28:32 51°22.517 2°52.212 0.8 12 2 24
2011-10-20 07:28:37 51°22.534 2°52.214 1.1 12.1 3 23.7
2011-10-20 07:28:42 51°22.55 2°52.215 1 12.1 2 23.6
2011-10-20 07:28:47 51°22.567 2°52.216 1.1 12.1 2 23.6
2011-10-20 07:28:53 51°22.587 2°52.217 0.4 12.1 2 24.5
2011-10-20 07:28:57 51°22.6 2°52.218 0.3 12 3 24.5
2011-10-20 07:29:02 51°22.617 2°52.219 0.6 12 3 24.5
2011-10-20 07:29:07 51°22.634 2°52.22 1.1 12 2 25.4
2011-10-20 07:29:12 51°22.65 2°52.222 1.6 11.9 4 24.8
2011-10-20 07:29:17 51°22.667 2°52.223 0.9 12 2 23.6
2011-10-20 07:29:22 51°22.684 2°52.223 0.4 11.9 2 23.7
2011-10-20 07:29:27 51°22.7 2°52.223 0.8 12 -999 24.3
2011-10-20 07:29:32 51°22.717 2°52.224 0.1 12 -999 24.1
2011-10-20 07:29:37 51°22.733 2°52.224 359.2 12 1 25
2011-10-20 07:29:42 51°22.75 2°52.224 358.5 12 -999 24.6
2011-10-20 07:29:47 51°22.767 2°52.224 358.2 11.9 1 24.1
2011-10-20 07:29:52 51°22.783 2°52.225 358.1 11.7 1 24.6
2011-10-20 07:29:57 51°22.8 2°52.226 359.4 11.9 2 24.6
2011-10-20 07:30:02 51°22.816 2°52.226 359.6 12.1 -999 23.5
2011-10-20 07:30:07 51°22.833 2°52.227 359.5 12.1 -999 23.9
2011-10-20 07:30:12 51°22.85 2°52.226 359 12.2 359 23.6
2011-10-20 07:30:17 51°22.867 2°52.226 358.6 12.2 359 22.6
2011-10-20 07:30:22 51°22.883 2°52.226 357.9 11.9 1 24.1
2011-10-20 07:30:27 51°22.899 2°52.224 358.4 11.9 357 24.6
2011-10-20 07:30:32 51°22.916 2°52.224 357.7 11.9 359 25.2
2011-10-20 07:30:37 51°22.932 2°52.223 357.9 12 358 25.1
2011-10-20 07:30:42 51°22.949 2°52.223 358.1 12 359 25.6
2011-10-20 07:30:47 51°22.966 2°52.223 358.2 11.9 -999 24.6
2011-10-20 07:30:52 51°22.983 2°52.222 358.5 12.1 -999 24.3
2011-10-20 07:30:57 51°23 2°52.222 359.4 12.3 -999 24.2
2011-10-20 07:31:02 51°23.016 2°52.222 358.8 12.3 -999 23.4
2011-10-20 07:31:07 51°23.033 2°52.222 359 12.1 359 22.8
2011-10-20 07:31:12 51°23.05 2°52.223 359.4 12.2 1 22.2
2011-10-20 07:31:17 51°23.066 2°52.222 359.1 11.9 -999 23.6
2011-10-20 07:31:22 51°23.082 2°52.224 0.1 11.7 3 25.3
2011-10-20 07:31:27 51°23.098 2°52.224 0.1 11.5 -999 26
2011-10-20 07:31:32 51°23.115 2°52.223 358.9 11.5 -999 24.8
2011-10-20 07:31:37 51°23.131 2°52.223 358.3 11.4 359 -999
2011-10-20 07:31:43 51°23.149 2°52.223 357.9 11.1 1 23.7
2011-10-20 07:31:48 51°23.164 2°52.222 358.7 11.3 359 24.1
2011-10-20 07:31:53 51°23.18 2°52.223 358.6 11.3 -999 24.9
2011-10-20 07:31:57 51°23.192 2°52.222 358.9 11.4 359 23.4
2011-10-20 07:32:02 51°23.208 2°52.223 359.4 11.4 -999 22.9
2011-10-20 07:32:07 51°23.224 2°52.223 359.8 11.5 2 23.1
2011-10-20 07:32:12 51°23.241 2°52.224 0.9 11.6 1 21.7
2011-10-20 07:32:17 51°23.256 2°52.225 1.3 11.5 2 22.8
2011-10-20 07:32:22 51°23.273 2°52.226 0.1 11.5 1 22.4
2011-10-20 07:32:27 51°23.289 2°52.227 0.1 11.4 3 22.3
2011-10-20 07:32:33 51°23.309 2°52.227 0.3 11.6 1 20.6
2011-10-20 07:32:37 51°23.322 2°52.226 359.5 11.9 359 20.6
2011-10-20 07:32:42 51°23.339 2°52.226 359.1 12.1 359 20.8
2011-10-20 07:32:47 51°23.355 2°52.226 358.5 11.7 -999 20.2
2011-10-20 07:32:52 51°23.371 2°52.226 358.4 11.7 -999 21.2
2011-10-20 07:32:57 51°23.388 2°52.226 359.4 11.8 359 21.2
2011-10-20 07:33:02 51°23.404 2°52.226 359 11.9 1 20.6
2011-10-20 07:33:07 51°23.421 2°52.225 358.6 12.1 -999 20.3
2011-10-20 07:33:12 51°23.438 2°52.225 359.4 12.1 1 18.5
2011-10-20 07:33:17 51°23.455 2°52.225 359.6 12.3 -999 17.7
2011-10-20 07:33:22 51°23.472 2°52.226 359.4 12.4 -999 19.4
2011-10-20 07:33:27 51°23.489 2°52.225 359.7 12.4 359 19.6
2011-10-20 07:33:32 51°23.507 2°52.226 359.3 12.5 -999 19.8
2011-10-20 07:33:37 51°23.524 2°52.225 358.6 12.4 358 18.5
2011-10-20 07:33:42 51°23.541 2°52.225 358.9 12.3 1 19.5
2011-10-20 07:33:47 51°23.558 2°52.224 359.2 12.4 359 17.6
2011-10-20 07:33:52 51°23.575 2°52.225 358.9 12.5 1 17.7
2011-10-20 07:33:57 51°23.593 2°52.224 359.3 12.6 359 18.1
2011-10-20 07:34:02 51°23.61 2°52.224 359.2 12.5 -999 16.7
2011-10-20 07:34:07 51°23.627 2°52.224 359.1 12.2 -999 18
2011-10-20 07:34:12 51°23.644 2°52.224 359.4 12.3 359 18.7
2011-10-20 07:34:17 51°23.661 2°52.224 358.9 12.2 1 18.3
2011-10-20 07:34:22 51°23.678 2°52.224 359.8 12.2 -999 18.2
2011-10-20 07:34:27 51°23.695 2°52.224 358.9 12.3 -999 18.2
2011-10-20 07:34:32 51°23.712 2°52.223 358.8 12.2 -999 15.9
2011-10-20 07:34:37 51°23.729 2°52.223 359 12.2 359 17
2011-10-20 07:34:42 51°23.746 2°52.223 359 12.2 359 18.3
2011-10-20 07:34:47 51°23.763 2°52.223 359.4 12.2 359 18.3
2011-10-20 07:34:52 51°23.78 2°52.223 0.1 12.4 1 18.2
2011-10-20 07:34:57 51°23.797 2°52.223 0.1 12.5 -999 18.5
2011-10-20 07:35:02 51°23.814 2°52.223 0.1 12.5 -999 18.3
2011-10-20 07:35:07 51°23.831 2°52.223 359.4 12.2 -999 18.3
2011-10-20 07:35:13 51°23.85 2°52.224 -999 11.7 -999 19.1
2011-10-20 07:35:17 51°23.864 2°52.224 0.7 11.6 2 18.6
2011-10-20 07:35:22 51°23.88 2°52.225 0.8 11.7 1 16.8
2011-10-20 07:35:27 51°23.896 2°52.226 1.1 11.9 1 18.6
2011-10-20 07:35:33 51°23.916 2°52.226 359.7 11.9 -999 19.1
2011-10-20 07:35:37 51°23.929 2°52.226 359.7 11.9 1 20
2011-10-20 07:35:42 51°23.945 2°52.226 359.7 12 -999 19.4
2011-10-20 07:35:47 51°23.962 2°52.225 359.6 11.8 359 18.7
2011-10-20 07:35:53 51°23.981 2°52.226 358.6 11.6 1 -999
2011-10-20 07:35:58 51°23.997 2°52.226 -999 11.6 -999 18.1
2011-10-20 07:36:03 51°24.013 2°52.226 359.4 11.3 -999 16
2011-10-20 07:36:08 51°24.029 2°52.226 358.6 11.2 359 16
2011-10-20 07:36:13 51°24.045 2°52.226 358.8 11.4 -999 18
2011-10-20 07:36:17 51°24.058 2°52.226 358.7 11.7 -999 17.2
2011-10-20 07:36:22 51°24.074 2°52.226 358.7 11.4 -999 17.5
2011-10-20 07:36:28 51°24.092 2°52.226 358.8 11.3 -999 -999
2011-10-20 07:36:33 51°24.109 2°52.226 -999 11.6 359 18.9
2011-10-20 07:36:38 51°24.125 2°52.225 359.4 11.7 358 19.7
2011-10-20 07:36:43 51°24.141 2°52.225 358.4 11.6 359 19.5
2011-10-20 07:36:48 51°24.157 2°52.224 358.2 11.7 -999 20.4
2011-10-20 07:36:53 51°24.173 2°52.223 358.8 11.8 358 20.9
2011-10-20 07:36:57 51°24.186 2°52.224 358.7 11.8 2 20.5
2011-10-20 07:37:02 51°24.203 2°52.223 359.4 11.9 358 19.2
2011-10-20 07:37:07 51°24.219 2°52.223 359.1 12 359 18.7
2011-10-20 07:37:12 51°24.236 2°52.222 358.9 12 359 19.1
2011-10-20 07:37:17 51°24.253 2°52.222 358.5 12 359 18.6
2011-10-20 07:37:22 51°24.27 2°52.221 358.4 12 359 19.8
2011-10-20 07:37:27 51°24.286 2°52.22 358.5 12 358 19.3
2011-10-20 07:37:33 51°24.306 2°52.22 358.7 11.3 -999 18.1
2011-10-20 07:37:38 51°24.321 2°52.219 358.4 11.4 359 -999
2011-10-20 07:37:43 51°24.338 2°52.219 358.7 11.6 359 18.6
2011-10-20 07:37:48 51°24.354 2°52.219 359.4 11.8 -999 19.1
2011-10-20 07:37:53 51°24.37 2°52.219 359.4 11.9 359 19.5
2011-10-20 07:37:57 51°24.384 2°52.219 -999 11.9 -999 19.9
2011-10-20 07:38:02 51°24.4 2°52.219 359.4 12 1 20
2011-10-20 07:38:07 51°24.417 2°52.219 0.2 12.1 -999 19.2
2011-10-20 07:38:12 51°24.434 2°52.22 359.9 12.1 1 19.3
2011-10-20 07:38:17 51°24.451 2°52.22 0.8 12 1 19.6
2011-10-20 07:38:22 51°24.468 2°52.221 0.2 12.1 1 18.5
2011-10-20 07:38:27 51°24.484 2°52.221 0.8 12.1 -999 20.2
2011-10-20 07:38:32 51°24.501 2°52.22 359.5 12.2 358 20.6
2011-10-20 07:38:37 51°24.518 2°52.219 358.9 12.2 -999 21.5
2011-10-20 07:38:42 51°24.535 2°52.219 358.2 12.3 -999 20.2
2011-10-20 07:38:47 51°24.552 2°52.219 358.7 12 359 19.7
2011-10-20 07:38:52 51°24.568 2°52.218 358.7 11.8 359 21.3
2011-10-20 07:38:57 51°24.584 2°52.218 358.7 12 359 22.3
2011-10-20 07:39:02 51°24.601 2°52.217 357.9 12 358 22.7
2011-10-20 07:39:07 51°24.618 2°52.216 357.9 12 357 22.9
2011-10-20 07:39:12 51°24.635 2°52.215 357.4 12.2 358 22.3
2011-10-20 07:39:17 51°24.652 2°52.214 357.8 12.3 358 21.9
2011-10-20 07:39:22 51°24.669 2°52.213 358.2 12.3 358 21
2011-10-20 07:39:27 51°24.686 2°52.213 358.4 11.8 359 22.4
2011-10-20 07:39:33 51°24.705 2°52.211 358.2 11.8 358 22.4
2011-10-20 07:39:37 51°24.718 2°52.211 358.6 12 358 23.3
2011-10-20 07:39:42 51°24.735 2°52.21 358.4 12 358 22.7
2011-10-20 07:39:47 51°24.752 2°52.21 358.4 12.1 359 22.1
2011-10-20 07:39:52 51°24.768 2°52.21 358.5 11.2 1 22.1
2011-10-20 07:39:58 51°24.786 2°52.21 359.8 10.8 359 -999
2011-10-20 07:40:03 51°24.801 2°52.21 0.5 11.2 -999 23.7
2011-10-20 07:40:08 51°24.817 2°52.21 -999 11.4 1 23.4
2011-10-20 07:40:13 51°24.833 2°52.211 0.5 11.5 1 24.5
2011-10-20 07:40:18 51°24.849 2°52.211 0.1 11.6 2 24.2
2011-10-20 07:40:23 51°24.865 2°52.212 0.6 11.7 -999 23.9
2011-10-20 07:40:28 51°24.881 2°52.212 0.6 11.9 1 25.1
2011-10-20 07:40:32 51°24.894 2°52.212 0.1 11.7 -999 24.7
2011-10-20 07:40:37 51°24.91 2°52.212 0.4 11.7 -999 25.3
2011-10-20 07:40:42 51°24.927 2°52.211 0.2 11.8 359 24.6
2011-10-20 07:40:47 51°24.943 2°52.211 0.4 11.8 -999 24.3
2011-10-20 07:40:52 51°24.959 2°52.211 359.8 11.4 1 24.9
2011-10-20 07:40:57 51°24.975 2°52.212 0.6 11.2 2 25.4
2011-10-20 07:41:02 51°24.99 2°52.213 1 11.3 1 26.6
2011-10-20 07:41:07 51°25.006 2°52.214 1.5 11.5 2 26.3
2011-10-20 07:41:12 51°25.023 2°52.214 1 11.7 -999 26.2
2011-10-20 07:41:17 51°25.039 2°52.215 0.7 11.7 2 27
2011-10-20 07:41:22 51°25.055 2°52.215 0.8 11.9 1 26.2
2011-10-20 07:41:27 51°25.072 2°52.216 0.2 12 2 26.5
2011-10-20 07:41:32 51°25.089 2°52.216 0.8 12.1 -999 26.4
2011-10-20 07:41:37 51°25.106 2°52.216 0.4 12 1 27.7
2011-10-20 07:41:42 51°25.122 2°52.216 0.1 12 -999 26.7
2011-10-20 07:41:47 51°25.139 2°52.216 359.2 12 -999 26
2011-10-20 07:41:53 51°25.159 2°52.215 359 12 358 26.3
2011-10-20 07:41:57 51°25.173 2°52.215 358.7 12.1 358 26.4
2011-10-20 07:42:02 51°25.189 2°52.212 356.3 12.1 356 26.3
2011-10-20 07:42:07 51°25.206 2°52.209 354.1 12 352 26.8
2011-10-20 07:42:12 51°25.223 2°52.205 352 12 352 25.8
2011-10-20 07:42:17 51°25.239 2°52.2 350.9 11.9 351 25.9
2011-10-20 07:42:22 51°25.255 2°52.195 348.5 11.9 349 26.4
2011-10-20 07:42:27 51°25.271 2°52.19 348.6 12.1 349 26.3
2011-10-20 07:42:33 51°25.291 2°52.183 347.6 12.1 348 26.2
2011-10-20 07:42:37 51°25.304 2°52.178 346.4 12.2 347 25.7
2011-10-20 07:42:42 51°25.32 2°52.173 346.6 12 348 25.9
2011-10-20 07:42:47 51°25.336 2°52.166 346 11.6 346 26.6
2011-10-20 07:42:52 51°25.352 2°52.161 345.6 11.7 347 26.2
2011-10-20 07:42:57 51°25.368 2°52.155 346.3 11.8 347 26.6
2011-10-20 07:43:02 51°25.384 2°52.149 346.1 11.9 347 27.1
2011-10-20 07:43:07 51°25.401 2°52.144 346.8 11.8 348 27.6
2011-10-20 07:43:12 51°25.416 2°52.138 346.4 11.9 348 27.6
2011-10-20 07:43:17 51°25.433 2°52.132 347 12.1 348 27.4
2011-10-20 07:43:22 51°25.449 2°52.126 346.9 11.9 348 28.3
2011-10-20 07:43:27 51°25.466 2°52.121 347.2 12.2 348 28.3
2011-10-20 07:43:32 51°25.482 2°52.116 347 12 349 28.3
2011-10-20 07:43:37 51°25.498 2°52.11 347.5 12 348 28.3
2011-10-20 07:43:42 51°25.515 2°52.104 347.5 12.2 347 28.8
2011-10-20 07:43:47 51°25.531 2°52.1 347.5 11.8 349 -999
2011-10-20 07:43:53 51°25.551 2°52.094 347.5 11.8 351 28.7
2011-10-20 07:43:57 51°25.563 2°52.09 348.5 11.7 349 29.5
2011-10-20 07:44:02 51°25.58 2°52.085 349 11.9 350 28.3
2011-10-20 07:44:07 51°25.596 2°52.081 348.8 11.7 350 28
2011-10-20 07:44:13 51°25.614 2°52.077 349 11.2 354 -999
2011-10-20 07:44:18 51°25.629 2°52.073 350.5 11.5 351 28.5
2011-10-20 07:44:23 51°25.645 2°52.07 350.9 11.7 351 29.4
2011-10-20 07:44:28 51°25.661 2°52.065 350.5 11.6 349 30.7
2011-10-20 07:44:33 51°25.676 2°52.062 350.1 11.2 351 -999
2011-10-20 07:44:37 51°25.688 2°52.058 350 11.2 351 28.3
2011-10-20 07:44:42 51°25.704 2°52.054 349.6 11.4 350 28.6
2011-10-20 07:44:47 51°25.719 2°52.05 349.9 11.4 350 28.7
2011-10-20 07:44:53 51°25.738 2°52.044 349.1 11.6 350 29.5
2011-10-20 07:44:57 51°25.751 2°52.041 349.2 11.6 351 29.6
2011-10-20 07:45:02 51°25.767 2°52.036 349.6 11.6 350 29.1
2011-10-20 07:45:07 51°25.783 2°52.032 349.1 11.5 351 28
2011-10-20 07:45:12 51°25.798 2°52.029 349.9 11.2 351 28.7
2011-10-20 07:45:17 51°25.814 2°52.025 350.6 11.2 350 -999
2011-10-20 07:45:23 51°25.833 2°52.02 349.8 11.4 350 28.2
2011-10-20 07:45:28 51°25.848 2°52.016 350.3 11.5 351 27.3
2011-10-20 07:45:33 51°25.864 2°52.011 349.9 11.4 350 26.6
2011-10-20 07:45:37 51°25.877 2°52.008 349.2 11.7 351 26.9
2011-10-20 07:45:42 51°25.893 2°52.003 349.6 11.9 349 26.6
2011-10-20 07:45:47 51°25.909 2°51.999 348.7 11.8 351 26.8
2011-10-20 07:45:52 51°25.925 2°51.993 348.8 11.8 349 27.4
2011-10-20 07:45:57 51°25.941 2°51.989 349 11.8 350 27
2011-10-20 07:46:02 51°25.957 2°51.984 348.9 12 350 27.7
2011-10-20 07:46:07 51°25.974 2°51.979 348.1 11.7 349 -999
2011-10-20 07:46:13 51°25.992 2°51.974 347.7 11.3 351 28.6
2011-10-20 07:46:17 51°26.005 2°51.971 349.2 11.5 350 27.3
2011-10-20 07:46:22 51°26.021 2°51.966 349.3 11.7 350 27.6
2011-10-20 07:46:27 51°26.037 2°51.962 350.2 11.9 351 26.9
2011-10-20 07:46:32 51°26.053 2°51.958 349.7 11.8 352 26.2
2011-10-20 07:46:37 51°26.069 2°51.954 349.9 12 351 26.5
2011-10-20 07:46:42 51°26.085 2°51.95 349.5 11.7 351 27
2011-10-20 07:46:47 51°26.101 2°51.945 350.3 11.7 350 27
2011-10-20 07:46:52 51°26.117 2°51.941 349.6 12 351 28.1
2011-10-20 07:46:57 51°26.133 2°51.936 349.5 11.5 349 27.6
2011-10-20 07:47:02 51°26.148 2°51.932 349.1 11.3 351 27.3
2011-10-20 07:47:07 51°26.164 2°51.927 349.7 11.5 348 26.4
2011-10-20 07:47:12 51°26.18 2°51.923 349.1 11.7 350 26.1
2011-10-20 07:47:17 51°26.196 2°51.918 348.3 11.6 350 26.2
2011-10-20 07:47:22 51°26.212 2°51.913 349 11.9 349 25.6
2011-10-20 07:47:27 51°26.228 2°51.909 349.2 11.8 351 24.9
2011-10-20 07:47:32 51°26.243 2°51.905 349.6 11.3 351 26
2011-10-20 07:47:37 51°26.259 2°51.901 349.9 11.4 350 25.5
2011-10-20 07:47:42 51°26.275 2°51.897 349.9 11.4 351 26.4
2011-10-20 07:47:47 51°26.29 2°51.893 349.8 11.6 349 27
2011-10-20 07:47:52 51°26.306 2°51.886 347.2 11.6 345 26.7
2011-10-20 07:47:57 51°26.322 2°51.881 345.7 11.8 347 27
2011-10-20 07:48:02 51°26.337 2°51.873 344.4 11.7 344 26.5
2011-10-20 07:48:07 51°26.353 2°51.865 343.1 11.7 343 27.2
2011-10-20 07:48:12 51°26.369 2°51.857 342 11.8 343 27.2
2011-10-20 07:48:17 51°26.384 2°51.849 340.9 11.8 342 28.4
2011-10-20 07:48:22 51°26.4 2°51.84 339.7 11.8 341 27.7
2011-10-20 07:48:27 51°26.416 2°51.832 340.1 11.8 341 26.5
2011-10-20 07:48:32 51°26.431 2°51.822 338.8 11.8 338 27.4
2011-10-20 07:48:37 51°26.446 2°51.813 338.5 11.9 340 27.2
2011-10-20 07:48:42 51°26.462 2°51.803 338.3 11.9 339 27.1
2011-10-20 07:48:47 51°26.477 2°51.794 337.6 12 339 28.1
2011-10-20 07:48:53 51°26.495 2°51.783 338.3 11.2 339 26.8
2011-10-20 07:48:57 51°26.506 2°51.777 338.3 10.4 340 26.9
2011-10-20 07:49:02 51°26.518 2°51.77 338.3 9.5 340 26.8
2011-10-20 07:49:07 51°26.53 2°51.763 338.6 8.7 341 27.5
2011-10-20 07:49:12 51°26.54 2°51.757 338 8 340 28
2011-10-20 07:49:17 51°26.55 2°51.752 338.4 7.2 341 28.4
2011-10-20 07:49:22 51°26.558 2°51.747 338.1 6.4 340 -999
2011-10-20 07:49:27 51°26.566 2°51.743 337.6 5.9 342 27.3
2011-10-20 07:49:32 51°26.573 2°51.738 336.4 5.4 341 25.9
2011-10-20 07:49:37 51°26.579 2°51.735 335.3 4.7 341 28.4
2011-10-20 07:49:42 51°26.585 2°51.733 335.3 4.4 347 27.1
2011-10-20 07:49:47 51°26.591 2°51.73 335.5 4.1 341 27
2011-10-20 07:49:52 51°26.596 2°51.728 334.8 3.9 344 27.1
2011-10-20 07:49:57 51°26.6 2°51.725 335.2 3.6 343 27.3
2011-10-20 07:50:02 51°26.605 2°51.723 333.7 3.4 345 27.3
2011-10-20 07:50:07 51°26.609 2°51.72 332.4 3.2 345 27.1
2011-10-20 07:50:12 51°26.612 2°51.718 331.3 2.8 333 27.6
2011-10-20 07:50:17 51°26.615 2°51.718 329.8 2.2 345 27.7
2011-10-20 07:50:22 51°26.617 2°51.716 327.9 1.7 345 26.7
2011-10-20 07:50:27 51°26.62 2°51.716 325.2 1.5 352 26.8
2011-10-20 07:50:32 51°26.621 2°51.714 324.6 1.3 346 25.9
2011-10-20 07:50:37 51°26.623 2°51.714 323.5 1.1 355 26.8
2011-10-20 07:50:42 51°26.624 2°51.715 324.1 0.8 26 27.4
2011-10-20 07:50:47 51°26.624 2°51.716 325.3 0.5 37 27
2011-10-20 07:50:52 51°26.625 2°51.717 325.8 0.6 59 26.7
2011-10-20 07:50:57 51°26.625 2°51.718 326.6 0.6 68 26.9
2011-10-20 07:51:02 51°26.625 2°51.719 327.2 0.7 101 27.2
2011-10-20 07:51:07 51°26.625 2°51.722 328.7 1 101 26.9
2011-10-20 07:51:12 51°26.624 2°51.723 330.7 1.2 123 26.1
2011-10-20 07:51:17 51°26.623 2°51.725 331.8 1 128 -999
2011-10-20 07:51:24 51°26.622 2°51.728 332.9 1.1 128 -999
2011-10-20 07:51:29 51°26.621 2°51.731 334.1 1.2 118 -999
2011-10-20 07:51:35 51°26.62 2°51.732 334.3 1.1 139 -999
2011-10-20 07:51:41 51°26.619 2°51.735 335 1.1 133 -999
2011-10-20 07:51:45 51°26.618 2°51.736 336.1 1.3 119 -999
2011-10-20 07:51:51 51°26.616 2°51.739 335.4 1 144 -999
2011-10-20 07:51:56 51°26.616 2°51.741 336.2 1.4 116 27.4
2011-10-20 07:52:01 51°26.615 2°51.743 336.4 1.2 134 -999
2011-10-20 07:52:05 51°26.614 2°51.744 336.5 1.1 129 -999
2011-10-20 07:52:10 51°26.613 2°51.747 337.6 1.2 129 26.9
2011-10-20 07:52:15 51°26.612 2°51.749 338.2 1.2 123 27.8
2011-10-20 07:52:20 51°26.612 2°51.751 338.5 1 118 26.5
2011-10-20 07:52:25 51°26.611 2°51.753 339.5 1.2 132 27.1
2011-10-20 07:52:30 51°26.61 2°51.755 340 1.1 122 27
2011-10-20 07:52:35 51°26.609 2°51.756 340.7 1.1 134 26.5
2011-10-20 07:52:40 51°26.608 2°51.758 341.4 1.3 129 27.5
2011-10-20 07:52:45 51°26.607 2°51.76 342.1 0.9 132 27.3
2011-10-20 07:52:49 51°26.606 2°51.762 343 1.1 124 27.3
2011-10-20 07:52:54 51°26.605 2°51.764 343.9 1.1 128 27.2
2011-10-20 07:52:59 51°26.604 2°51.765 344.8 1.1 126 27
2011-10-20 07:53:04 51°26.603 2°51.767 346.1 0.9 137 27.1
2011-10-20 07:53:09 51°26.602 2°51.769 347 1 130 26.9
2011-10-20 07:53:13 51°26.602 2°51.77 347.6 0.7 118 27.4
2011-10-20 07:53:18 51°26.601 2°51.77 347.2 0.5 135 27.1
2011-10-20 07:53:23 51°26.601 2°51.771 346.3 0.4 149 26.8
2011-10-20 07:53:28 51°26.601 2°51.772 344.7 0.5 85 27
2011-10-20 07:53:33 51°26.601 2°51.773 341.1 0.3 97 27
2011-10-20 07:53:38 51°26.6 2°51.773 338.3 0.3 78 27.2
2011-10-20 07:53:42 51°26.601 2°51.774 334.9 0.1 10 27.4
2011-10-20 07:53:47 51°26.601 2°51.774 332.5 0.3 58 27.5
2011-10-20 07:53:52 51°26.601 2°51.774 330.3 0.2 350 26.8
2011-10-20 07:53:57 51°26.601 2°51.774 327.1 -999 23 28.4
2011-10-20 07:54:02 51°26.602 2°51.775 323.9 0.5 49 27.4
2011-10-20 07:54:07 51°26.602 2°51.774 321 0.1 51 27.2
2011-10-20 07:54:12 51°26.603 2°51.775 317.8 0.6 26 26.3
2011-10-20 07:54:17 51°26.603 2°51.774 314.4 0.3 261 27.4
2011-10-20 07:54:22 51°26.604 2°51.776 312.3 0.8 32 27.2
2011-10-20 07:54:27 51°26.603 2°51.775 310.6 0.1 234 26.7
2011-10-20 07:54:33 51°26.604 2°51.776 307.1 0.6 22 26.9
2011-10-20 07:54:37 51°26.604 2°51.776 305 0.1 239 27.3
2011-10-20 07:54:42 51°26.604 2°51.776 302.6 0.4 28 26.4
2011-10-20 07:54:47 51°26.604 2°51.776 298.8 0.3 202 27.8
2011-10-20 07:54:52 51°26.605 2°51.777 297.7 0.8 31 26.6
2011-10-20 07:54:57 51°26.604 2°51.776 294.7 0.6 208 27.1
2011-10-20 07:55:02 51°26.605 2°51.777 292 0.6 29 27.4
2011-10-20 07:55:07 51°26.605 2°51.777 290.6 -999 112 27
2011-10-20 07:55:12 51°26.605 2°51.777 288.9 -999 144 27.7
2011-10-20 07:55:17 51°26.605 2°51.777 287.1 0.4 24 27
2011-10-20 07:55:22 51°26.605 2°51.777 285.1 0.1 49 26.9
2011-10-20 07:55:27 51°26.606 2°51.777 283 0.1 46 27.2
2011-10-20 07:55:33 51°26.606 2°51.778 282.9 0.1 33 25.9
2011-10-20 07:55:37 51°26.605 2°51.777 281.7 0.4 209 26.7
2011-10-20 07:55:42 51°26.606 2°51.777 280.3 0.1 6 26.8
2011-10-20 07:55:47 51°26.606 2°51.777 280.9 0.1 239 26.9
2011-10-20 07:55:52 51°26.606 2°51.777 280.2 0.3 3 26.5
2011-10-20 07:55:57 51°26.605 2°51.777 279.8 0.2 185 26.6
2011-10-20 07:56:02 51°26.606 2°51.777 279.5 0.2 326 26.9
2011-10-20 07:56:07 51°26.606 2°51.777 278.7 0.2 351 26.3
2011-10-20 07:56:13 51°26.606 2°51.778 278.7 0.3 86 26.5
2011-10-20 07:56:17 51°26.606 2°51.778 277.6 0.3 54 26.9
2011-10-20 07:56:22 51°26.606 2°51.778 277.3 0.2 78 26.4
2011-10-20 07:56:27 51°26.606 2°51.778 275.9 -999 194 26.6
2011-10-20 07:56:32 51°26.606 2°51.779 274.5 0.1 101 26.2
2011-10-20 07:56:37 51°26.605 2°51.779 273.9 0.5 166 27.2
2011-10-20 07:56:42 51°26.607 2°51.78 274.7 0.5 18 27.3
2011-10-20 07:56:47 51°26.606 2°51.78 275.3 0.1 66 27.2
2011-10-20 07:56:52 51°26.607 2°51.78 275 0.1 339 27.1
2011-10-20 07:56:57 51°26.607 2°51.78 276.4 0.2 17 27.5
2011-10-20 07:57:02 51°26.607 2°51.78 277.4 0.3 342 27.6
2011-10-20 07:57:07 51°26.607 2°51.78 278.3 0.3 2 26.9
2011-10-20 07:57:13 51°26.608 2°51.78 278.8 0.3 341 27
2011-10-20 07:57:17 51°26.608 2°51.779 279.5 0.2 358 26.9
2011-10-20 07:57:22 51°26.608 2°51.779 279.4 -999 324 27.3
2011-10-20 07:57:27 51°26.608 2°51.779 279.5 0.2 236 27.8